createdAt,value
2019-06-15T00:02:52.758Z,12.00
2019-06-15T00:07:56.605Z,14.00
2019-06-15T00:13:00.433Z,14.00
2019-06-15T00:18:04.360Z,14.00
2019-06-15T00:23:08.176Z,14.00
2019-06-15T00:28:12.100Z,12.50
2019-06-15T00:33:16.307Z,14.25
2019-06-15T00:38:20.137Z,14.00
2019-06-15T00:43:23.963Z,15.00
2019-06-15T00:48:27.899Z,15.00
2019-06-15T00:53:31.798Z,15.25
2019-06-15T00:58:35.670Z,15.80
2019-06-15T01:03:40.024Z,16.80
2019-06-15T01:08:43.998Z,15.00
2019-06-15T01:13:47.892Z,14.80
2019-06-15T01:18:51.699Z,15.75
2019-06-15T01:23:56.662Z,14.80
2019-06-15T01:29:00.474Z,15.60
2019-06-15T01:34:04.523Z,16.60
2019-06-15T01:44:17.685Z,17.00
2019-06-15T01:49:21.544Z,17.50
2019-06-15T01:54:25.335Z,17.25
2019-06-15T01:59:29.612Z,19.25
2019-06-15T02:04:33.423Z,20.00
2019-06-15T02:09:37.204Z,18.75
2019-06-15T02:14:41.042Z,18.50
2019-06-15T02:19:44.805Z,19.00
2019-06-15T02:24:48.535Z,18.40
2019-06-15T02:29:52.483Z,19.25
2019-06-15T02:34:56.342Z,19.00
2019-06-15T02:40:00.194Z,17.25
2019-06-15T02:45:04.185Z,18.00
2019-06-15T02:50:08.049Z,18.00
2019-06-15T02:55:11.874Z,19.25
2019-06-15T03:00:17.396Z,19.20
2019-06-15T03:05:21.218Z,20.00
2019-06-15T03:10:25.145Z,18.20
2019-06-15T03:15:29.020Z,18.75
2019-06-15T03:20:32.741Z,20.00
2019-06-15T03:25:36.539Z,19.75
2019-06-15T03:30:41.162Z,17.50
2019-06-15T03:35:44.968Z,18.00
2019-06-15T03:40:48.852Z,18.40
2019-06-15T03:45:52.736Z,19.00
2019-06-15T03:50:56.607Z,18.00
2019-06-15T03:56:00.518Z,19.00
2019-06-15T04:01:14.370Z,19.00
2019-06-15T04:06:18.186Z,19.00
2019-06-15T04:11:22.124Z,17.80
2019-06-15T04:16:26.080Z,19.00
2019-06-15T04:21:30.027Z,19.75
2019-06-15T04:26:36.310Z,19.20
2019-06-15T04:31:40.170Z,18.00
2019-06-15T04:36:44.062Z,19.60
2019-06-15T04:41:47.975Z,18.75
2019-06-15T04:46:51.841Z,19.75
2019-06-15T04:51:55.787Z,19.00
2019-06-15T04:56:59.664Z,19.00
2019-06-15T05:02:03.489Z,19.40
2019-06-15T05:07:07.347Z,21.00
2019-06-15T05:12:11.211Z,21.00
2019-06-15T05:17:15.011Z,18.75
2019-06-15T05:22:19.108Z,20.00
2019-06-15T05:27:23.302Z,19.40
2019-06-15T05:32:27.154Z,19.80
2019-06-15T05:37:31.148Z,19.40
2019-06-15T05:42:34.970Z,21.00
2019-06-15T05:47:38.952Z,19.25
2019-06-15T05:52:42.846Z,20.50
2019-06-15T05:57:46.758Z,19.40
2019-06-15T06:02:50.647Z,19.75
2019-06-15T06:07:54.599Z,20.75
2019-06-15T06:12:58.370Z,22.75
2019-06-15T06:18:02.245Z,22.75
2019-06-15T06:23:05.995Z,22.00
2019-06-15T06:28:09.854Z,23.20
2019-06-15T06:33:13.842Z,23.00
2019-06-15T06:38:17.677Z,22.75
2019-06-15T06:43:21.604Z,24.00
2019-06-15T06:48:25.489Z,24.00
2019-06-15T06:53:29.482Z,24.00
2019-06-15T06:58:33.482Z,23.25
2019-06-15T07:03:38.656Z,23.00
2019-06-15T07:08:42.655Z,23.20
2019-06-15T07:13:47.142Z,23.00
2019-06-15T07:18:50.888Z,23.25
2019-06-15T07:23:54.635Z,24.75
2019-06-15T07:28:58.357Z,23.80
2019-06-15T07:34:02.074Z,23.80
2019-06-15T07:39:06.580Z,24.00
2019-06-15T07:44:10.984Z,24.00
2019-06-15T07:49:14.981Z,25.00
2019-06-15T07:54:18.663Z,24.50
2019-06-15T07:59:22.514Z,24.00
2019-06-15T08:04:26.461Z,23.50
2019-06-15T08:09:30.145Z,24.50
2019-06-15T08:14:33.877Z,23.25
2019-06-15T08:30:20.832Z,23.25
2019-06-15T08:35:24.826Z,23.00
2019-06-15T08:40:28.545Z,23.50
2019-06-15T08:45:32.757Z,22.40
2019-06-15T08:50:36.494Z,22.80
2019-06-15T08:55:40.222Z,23.00
2019-06-15T09:00:43.960Z,22.50
2019-06-15T09:10:55.233Z,20.75
2019-06-15T09:31:29.565Z,19.25
2019-06-15T09:36:33.274Z,20.50
2019-06-15T09:41:37.130Z,20.40
2019-06-15T09:46:41.359Z,21.00
2019-06-15T09:52:02.760Z,18.60
2019-06-15T09:57:02.193Z,19.20
2019-06-15T10:07:09.327Z,20.25
2019-06-15T10:12:13.205Z,18.40
2019-06-15T10:17:16.953Z,18.00
2019-06-15T10:22:20.665Z,17.80
2019-06-15T10:27:24.372Z,17.25
2019-06-15T10:32:28.160Z,18.00
2019-06-15T10:37:32.216Z,18.00
2019-06-15T10:42:36.132Z,17.00
2019-06-15T10:47:39.872Z,16.60
2019-06-15T10:52:43.660Z,17.00
2019-06-15T10:57:49.618Z,16.20
2019-06-15T11:02:53.353Z,17.75
2019-06-15T11:07:57.130Z,16.50
2019-06-15T11:13:00.898Z,16.25
2019-06-15T11:18:04.662Z,15.00
2019-06-15T11:23:08.362Z,13.75
2019-06-15T11:28:12.905Z,15.00
2019-06-15T11:33:17.094Z,14.75
2019-06-15T11:38:22.030Z,16.00
2019-06-15T11:43:26.165Z,14.00
2019-06-15T11:48:29.879Z,13.75
2019-06-15T11:53:33.861Z,14.75
2019-06-15T11:58:37.645Z,14.25
2019-06-15T12:03:41.350Z,12.80
2019-06-15T12:08:45.403Z,12.25
2019-06-15T12:13:49.110Z,13.75
2019-06-15T12:18:53.605Z,13.25
2019-06-15T12:23:57.337Z,14.00
2019-06-15T12:29:01.049Z,13.00
2019-06-15T12:34:04.779Z,13.00
2019-06-15T12:39:08.489Z,12.25
2019-06-15T12:44:12.195Z,12.75
2019-06-15T12:49:15.911Z,12.50
2019-06-15T12:54:19.697Z,12.00
2019-06-15T12:59:23.476Z,12.00
2019-06-15T13:04:27.230Z,11.50
2019-06-15T13:09:31.022Z,11.00
2019-06-15T13:14:34.796Z,10.75
2019-06-15T13:19:38.498Z,11.00
2019-06-15T13:24:42.238Z,11.60
2019-06-15T13:29:46.078Z,11.00
2019-06-15T13:34:49.818Z,12.50
2019-06-15T13:39:53.510Z,12.00
2019-06-15T13:44:57.357Z,10.80
2019-06-15T13:50:01.129Z,9.40
2019-06-15T13:55:05.531Z,10.40
2019-06-15T14:00:09.482Z,10.40
2019-06-15T14:05:13.386Z,10.00
2019-06-15T14:10:17.267Z,10.00
2019-06-15T14:15:20.978Z,9.60
2019-06-15T14:20:24.806Z,10.00
2019-06-15T14:25:28.526Z,8.25
2019-06-15T14:30:32.497Z,9.00
2019-06-15T14:35:36.359Z,9.00
2019-06-15T14:40:40.175Z,8.00
2019-06-15T14:45:58.402Z,9.00
2019-06-15T14:50:49.343Z,8.00
2019-06-15T14:55:53.186Z,8.00
2019-06-15T15:00:57.248Z,8.75
2019-06-15T15:06:01.109Z,8.75
2019-06-15T15:11:06.613Z,7.40
2019-06-15T15:16:10.530Z,7.00
2019-06-15T15:21:16.574Z,8.00
2019-06-15T15:26:19.862Z,7.60
2019-06-15T15:31:23.618Z,7.25
2019-06-15T15:36:27.338Z,7.25
2019-06-15T15:41:31.095Z,6.75
2019-06-15T15:46:34.806Z,7.00
2019-06-15T15:51:38.582Z,6.00
2019-06-15T15:56:42.582Z,6.25
2019-06-15T16:01:46.574Z,6.00
2019-06-15T16:06:50.485Z,6.25
2019-06-15T16:11:56.503Z,7.00
2019-06-15T16:16:59.396Z,6.75
2019-06-15T16:22:03.364Z,6.60
2019-06-15T16:27:07.307Z,6.25
2019-06-15T16:32:11.065Z,6.00
2019-06-15T16:37:16.882Z,6.00
2019-06-15T16:42:20.333Z,6.80
2019-06-15T16:47:24.076Z,5.40
2019-06-15T16:52:27.910Z,5.75
2019-06-15T16:57:31.623Z,6.20
2019-06-15T17:02:36.825Z,5.20
2019-06-15T17:07:40.845Z,6.25
2019-06-15T17:12:47.383Z,6.00
2019-06-15T17:17:50.074Z,5.25
2019-06-15T17:22:56.231Z,5.00
2019-06-15T17:27:59.249Z,5.50
2019-06-15T17:33:05.075Z,5.00
2019-06-15T17:38:08.451Z,5.75
2019-06-15T17:43:12.146Z,5.40
2019-06-15T17:48:17.443Z,5.00
2019-06-15T17:53:21.516Z,5.20
2019-06-15T17:58:26.203Z,5.00
2019-06-15T18:03:30.200Z,4.00
2019-06-15T18:08:34.055Z,4.80
2019-06-15T18:13:37.804Z,4.75
2019-06-15T18:18:41.587Z,5.00
2019-06-15T18:23:46.440Z,5.75
2019-06-15T18:28:50.353Z,4.50
2019-06-15T18:34:06.601Z,5.00
2019-06-15T18:38:59.585Z,4.00
2019-06-15T18:44:03.388Z,4.60
2019-06-15T18:49:07.100Z,4.00
2019-06-15T18:54:10.828Z,4.50
2019-06-15T18:59:16.654Z,4.00
2019-06-15T19:04:27.123Z,4.50
2019-06-15T19:09:26.721Z,3.00
2019-06-15T19:14:30.956Z,3.80
2019-06-15T19:19:37.547Z,4.00
2019-06-15T19:24:40.144Z,3.25
2019-06-15T19:29:46.395Z,4.40
2019-06-15T19:34:51.209Z,4.60
2019-06-15T19:39:56.518Z,4.00
2019-06-15T19:45:00.442Z,5.75
2019-06-15T19:50:06.661Z,4.00
2019-06-15T19:55:11.290Z,5.00
2019-06-15T20:00:17.102Z,4.80
2019-06-15T20:05:21.037Z,5.00
2019-06-15T20:10:26.657Z,5.20
2019-06-15T20:15:30.483Z,6.00
2019-06-15T20:20:36.954Z,6.00
2019-06-15T20:25:39.727Z,6.75
2019-06-15T20:30:46.044Z,7.00
2019-06-15T20:35:49.014Z,8.00
2019-06-15T20:40:53.321Z,7.00
2019-06-15T20:45:57.265Z,7.00
2019-06-15T20:51:02.067Z,6.00
2019-06-15T20:56:06.712Z,5.00
2019-06-15T21:01:11.153Z,4.00
2019-06-15T21:06:16.842Z,4.00
2019-06-15T21:11:21.506Z,4.00
2019-06-15T21:16:26.210Z,5.00
2019-06-15T21:21:30.186Z,4.00
2019-06-15T21:26:34.187Z,4.00
2019-06-15T21:31:37.984Z,4.25
2019-06-15T21:36:41.702Z,5.50
2019-06-15T21:41:46.286Z,4.60
2019-06-15T21:46:50.112Z,5.60
2019-06-15T21:51:56.290Z,5.00
2019-06-15T21:56:59.407Z,5.00
2019-06-15T22:02:03.150Z,5.50
2019-06-15T22:07:06.876Z,4.50
2019-06-15T22:12:10.622Z,6.00
2019-06-15T22:17:16.745Z,5.50
2019-06-15T22:22:19.821Z,5.75
2019-06-15T22:27:23.525Z,4.40
2019-06-15T22:32:27.299Z,6.00
2019-06-15T22:37:31.016Z,5.75
2019-06-15T22:42:36.243Z,4.00
2019-06-15T22:47:40.106Z,5.00
2019-06-15T22:52:43.897Z,5.00
2019-06-15T22:57:47.642Z,5.00
2019-06-15T23:02:51.360Z,6.00
2019-06-15T23:07:55.972Z,4.40
2019-06-15T23:12:59.926Z,5.40
2019-06-15T23:18:06.566Z,5.00
2019-06-15T23:23:09.501Z,5.50
2019-06-15T23:28:13.536Z,5.50
2019-06-15T23:33:17.466Z,6.00
2019-06-15T23:38:21.271Z,5.00
2019-06-15T23:43:26.896Z,5.00
2019-06-15T23:48:30.437Z,5.00
2019-06-15T23:53:36.589Z,4.60
2019-06-15T23:58:40.863Z,5.00
